sensor_id;sensor_type;location;lat;lon;timestamp;temperature;humidity
10417;DHT22;62605;49.432;8.680;2023-12-07T00:11:48;3.80;99.90
10417;DHT22;62605;49.432;8.680;2023-12-07T00:14:25;3.80;99.90
10417;DHT22;62605;49.432;8.680;2023-12-07T00:17:04;3.80;99.90
10417;DHT22;62605;49.432;8.680;2023-12-07T00:19:33;3.80;99.90
10417;DHT22;62605;49.432;8.680;2023-12-07T00:22:07;3.80;99.90
10417;DHT22;62605;49.432;8.680;2023-12-07T00:24:38;3.80;99.90
10417;DHT22;62605;49.432;8.680;2023-12-07T00:27:08;3.80;99.90
10417;DHT22;62605;49.432;8.680;2023-12-07T00:29:38;3.90;99.90
10417;DHT22;62605;49.432;8.680;2023-12-07T00:32:22;3.90;99.90
10417;DHT22;62605;49.432;8.680;2023-12-07T00:34:50;3.80;99.90
10417;DHT22;62605;49.432;8.680;2023-12-07T00:38:08;3.80;99.90
10417;DHT22;62605;49.432;8.680;2023-12-07T00:40:43;3.80;99.90
10417;DHT22;62605;49.432;8.680;2023-12-07T00:50:18;3.60;99.90
10417;DHT22;62605;49.432;8.680;2023-12-07T00:55:36;3.70;99.90
10417;DHT22;62605;49.432;8.680;2023-12-07T00:58:12;3.60;99.90
10417;DHT22;62605;49.432;8.680;2023-12-07T01:44:33;2.90;99.90
10417;DHT22;62605;49.432;8.680;2023-12-07T01:47:03;2.90;99.90
10417;DHT22;62605;49.432;8.680;2023-12-07T01:49:44;2.80;99.90
10417;DHT22;62605;49.432;8.680;2023-12-07T01:52:21;2.80;99.90
10417;DHT22;62605;49.432;8.680;2023-12-07T01:54:51;2.90;99.90
10417;DHT22;62605;49.432;8.680;2023-12-07T02:00:30;2.90;99.90
10417;DHT22;62605;49.432;8.680;2023-12-07T02:03:00;2.90;99.90
10417;DHT22;62605;49.432;8.680;2023-12-07T02:05:35;2.90;99.90
10417;DHT22;62605;49.432;8.680;2023-12-07T02:08:05;2.80;99.90
10417;DHT22;62605;49.432;8.680;2023-12-07T02:10:34;2.80;99.90
10417;DHT22;62605;49.432;8.680;2023-12-07T02:13:07;2.80;99.90
10417;DHT22;62605;49.432;8.680;2023-12-07T02:15:38;2.80;99.90
10417;DHT22;62605;49.432;8.680;2023-12-07T02:18:14;2.80;99.90
10417;DHT22;62605;49.432;8.680;2023-12-07T02:20:47;2.80;99.90
10417;DHT22;62605;49.432;8.680;2023-12-07T02:23:21;2.80;99.90
10417;DHT22;62605;49.432;8.680;2023-12-07T02:29:42;2.80;99.90
10417;DHT22;62605;49.432;8.680;2023-12-07T02:37:59;2.50;99.90
10417;DHT22;62605;49.432;8.680;2023-12-07T02:40:28;2.60;99.90
10417;DHT22;62605;49.432;8.680;2023-12-07T02:42:59;2.60;99.90
10417;DHT22;62605;49.432;8.680;2023-12-07T02:48:51;2.40;99.90
10417;DHT22;62605;49.432;8.680;2023-12-07T02:51:22;2.40;1.00
10417;DHT22;62605;49.432;8.680;2023-12-07T02:53:59;2.50;99.90
10417;DHT22;62605;49.432;8.680;2023-12-07T02:56:48;2.50;99.90
10417;DHT22;62605;49.432;8.680;2023-12-07T02:59:25;2.50;99.90
10417;DHT22;62605;49.432;8.680;2023-12-07T03:08:28;2.40;99.90
10417;DHT22;62605;49.432;8.680;2023-12-07T03:10:58;2.40;1.00
10417;DHT22;62605;49.432;8.680;2023-12-07T03:13:27;2.40;99.90
10417;DHT22;62605;49.432;8.680;2023-12-07T03:15:56;2.50;99.90
10417;DHT22;62605;49.432;8.680;2023-12-07T03:18:25;2.50;99.90
10417;DHT22;62605;49.432;8.680;2023-12-07T03:20:53;2.50;1.00
10417;DHT22;62605;49.432;8.680;2023-12-07T03:23:21;2.50;1.00
10417;DHT22;62605;49.432;8.680;2023-12-07T03:25:51;2.50;1.00
10417;DHT22;62605;49.432;8.680;2023-12-07T03:28:18;2.50;1.00
10417;DHT22;62605;49.432;8.680;2023-12-07T03:30:47;2.50;1.00
10417;DHT22;62605;49.432;8.680;2023-12-07T05:40:23;2.50;70.20
10417;DHT22;62605;49.432;8.680;2023-12-07T05:42:50;2.50;39.90
10417;DHT22;62605;49.432;8.680;2023-12-07T05:45:17;2.50;41.30
10417;DHT22;62605;49.432;8.680;2023-12-07T05:47:45;2.40;86.00
10417;DHT22;62605;49.432;8.680;2023-12-07T05:50:12;2.40;29.20
10417;DHT22;62605;49.432;8.680;2023-12-07T05:52:42;2.40;29.90
10417;DHT22;62605;49.432;8.680;2023-12-07T05:55:13;2.40;30.00
10417;DHT22;62605;49.432;8.680;2023-12-07T05:57:41;2.40;92.30
10417;DHT22;62605;49.432;8.680;2023-12-07T06:00:12;2.40;99.90
10417;DHT22;62605;49.432;8.680;2023-12-07T06:02:42;2.50;99.90
10417;DHT22;62605;49.432;8.680;2023-12-07T06:05:11;2.50;99.90
10417;DHT22;62605;49.432;8.680;2023-12-07T06:07:40;2.40;51.70
10417;DHT22;62605;49.432;8.680;2023-12-07T06:10:08;2.40;1.00
10417;DHT22;62605;49.432;8.680;2023-12-07T06:12:35;2.50;1.00
10417;DHT22;62605;49.432;8.680;2023-12-07T06:15:05;2.40;1.00
10417;DHT22;62605;49.432;8.680;2023-12-07T06:17:33;2.40;1.00
10417;DHT22;62605;49.432;8.680;2023-12-07T06:20:03;2.40;1.00
10417;DHT22;62605;49.432;8.680;2023-12-07T06:22:33;2.30;1.00
10417;DHT22;62605;49.432;8.680;2023-12-07T06:25:00;2.40;1.00
10417;DHT22;62605;49.432;8.680;2023-12-07T06:27:27;2.30;93.10
10417;DHT22;62605;49.432;8.680;2023-12-07T06:29:54;2.40;99.90
10417;DHT22;62605;49.432;8.680;2023-12-07T06:32:23;2.40;99.90
10417;DHT22;62605;49.432;8.680;2023-12-07T06:34:56;2.40;99.90
10417;DHT22;62605;49.432;8.680;2023-12-07T06:37:23;2.50;99.90
10417;DHT22;62605;49.432;8.680;2023-12-07T06:39:50;2.40;99.90
10417;DHT22;62605;49.432;8.680;2023-12-07T06:42:20;2.20;93.20
10417;DHT22;62605;49.432;8.680;2023-12-07T06:44:48;2.30;99.90
10417;DHT22;62605;49.432;8.680;2023-12-07T06:47:16;2.30;99.90
10417;DHT22;62605;49.432;8.680;2023-12-07T06:49:45;2.30;99.90
10417;DHT22;62605;49.432;8.680;2023-12-07T06:52:12;2.10;99.90
10417;DHT22;62605;49.432;8.680;2023-12-07T06:54:40;2.10;99.90
10417;DHT22;62605;49.432;8.680;2023-12-07T06:57:07;2.10;99.90
10417;DHT22;62605;49.432;8.680;2023-12-07T06:59:34;2.10;35.10
10417;DHT22;62605;49.432;8.680;2023-12-07T07:02:02;1.90;1.00
10417;DHT22;62605;49.432;8.680;2023-12-07T07:04:37;1.80;1.00
10417;DHT22;62605;49.432;8.680;2023-12-07T07:07:06;1.70;1.00
10417;DHT22;62605;49.432;8.680;2023-12-07T07:09:38;1.60;1.00
10417;DHT22;62605;49.432;8.680;2023-12-07T07:12:06;1.50;1.00
10417;DHT22;62605;49.432;8.680;2023-12-07T07:14:33;1.40;1.00
10417;DHT22;62605;49.432;8.680;2023-12-07T07:17:01;1.30;1.00
10417;DHT22;62605;49.432;8.680;2023-12-07T07:19:28;1.30;13.00
10417;DHT22;62605;49.432;8.680;2023-12-07T07:21:55;1.20;99.90
10417;DHT22;62605;49.432;8.680;2023-12-07T07:24:24;1.30;99.90
10417;DHT22;62605;49.432;8.680;2023-12-07T07:26:51;1.30;99.90
10417;DHT22;62605;49.432;8.680;2023-12-07T07:29:18;1.30;99.90
10417;DHT22;62605;49.432;8.680;2023-12-07T07:31:46;1.30;99.90
10417;DHT22;62605;49.432;8.680;2023-12-07T07:34:13;1.30;99.90
10417;DHT22;62605;49.432;8.680;2023-12-07T07:36:40;1.30;99.90
10417;DHT22;62605;49.432;8.680;2023-12-07T07:39:08;1.40;99.90
10417;DHT22;62605;49.432;8.680;2023-12-07T07:41:37;1.40;99.90
10417;DHT22;62605;49.432;8.680;2023-12-07T07:44:04;1.50;99.90
10417;DHT22;62605;49.432;8.680;2023-12-07T07:46:31;1.50;99.90
10417;DHT22;62605;49.432;8.680;2023-12-07T07:48:59;1.50;99.90
10417;DHT22;62605;49.432;8.680;2023-12-07T07:51:26;1.50;99.90
10417;DHT22;62605;49.432;8.680;2023-12-07T07:53:54;1.40;99.90
10417;DHT22;62605;49.432;8.680;2023-12-07T07:56:22;1.40;99.90
10417;DHT22;62605;49.432;8.680;2023-12-07T07:58:51;1.40;99.90
10417;DHT22;62605;49.432;8.680;2023-12-07T08:01:18;1.40;99.90
10417;DHT22;62605;49.432;8.680;2023-12-07T08:03:46;1.50;99.90
10417;DHT22;62605;49.432;8.680;2023-12-07T08:06:13;1.40;99.90
10417;DHT22;62605;49.432;8.680;2023-12-07T08:08:40;1.40;99.90
10417;DHT22;62605;49.432;8.680;2023-12-07T08:11:08;1.40;99.90
10417;DHT22;62605;49.432;8.680;2023-12-07T08:13:39;1.40;99.90
10417;DHT22;62605;49.432;8.680;2023-12-07T08:16:09;1.40;99.90
10417;DHT22;62605;49.432;8.680;2023-12-07T08:18:36;1.50;99.90
10417;DHT22;62605;49.432;8.680;2023-12-07T08:21:03;1.60;99.90
10417;DHT22;62605;49.432;8.680;2023-12-07T08:23:34;1.70;97.50
10417;DHT22;62605;49.432;8.680;2023-12-07T08:26:02;1.70;1.00
10417;DHT22;62605;49.432;8.680;2023-12-07T08:28:29;1.70;1.00
10417;DHT22;62605;49.432;8.680;2023-12-07T08:30:56;1.70;1.00
10417;DHT22;62605;49.432;8.680;2023-12-07T08:33:25;1.90;23.70
10417;DHT22;62605;49.432;8.680;2023-12-07T08:35:52;1.90;1.00
10417;DHT22;62605;49.432;8.680;2023-12-07T08:38:21;2.10;18.60
10417;DHT22;62605;49.432;8.680;2023-12-07T08:40:54;2.20;1.00
10417;DHT22;62605;49.432;8.680;2023-12-07T08:43:22;2.40;1.00
10417;DHT22;62605;49.432;8.680;2023-12-07T08:45:49;2.70;1.00
10417;DHT22;62605;49.432;8.680;2023-12-07T08:48:17;2.90;1.00
10417;DHT22;62605;49.432;8.680;2023-12-07T08:50:46;3.00;1.00
10417;DHT22;62605;49.432;8.680;2023-12-07T08:54:24;3.00;1.00
10417;DHT22;62605;49.432;8.680;2023-12-07T08:56:13;3.00;1.00
10417;DHT22;62605;49.432;8.680;2023-12-07T08:58:40;3.10;1.00
10417;DHT22;62605;49.432;8.680;2023-12-07T09:01:26;3.00;1.00
10417;DHT22;62605;49.432;8.680;2023-12-07T09:04:08;3.00;1.00
10417;DHT22;62605;49.432;8.680;2023-12-07T09:06:37;3.10;1.00
10417;DHT22;62605;49.432;8.680;2023-12-07T09:09:05;3.20;1.00
10417;DHT22;62605;49.432;8.680;2023-12-07T09:11:32;3.00;1.00
10417;DHT22;62605;49.432;8.680;2023-12-07T09:13:59;3.10;1.00
10417;DHT22;62605;49.432;8.680;2023-12-07T09:16:26;3.00;1.00
10417;DHT22;62605;49.432;8.680;2023-12-07T09:18:54;3.10;99.90
10417;DHT22;62605;49.432;8.680;2023-12-07T09:21:21;3.10;99.90
10417;DHT22;62605;49.432;8.680;2023-12-07T09:23:51;3.20;99.90
10417;DHT22;62605;49.432;8.680;2023-12-07T09:26:18;3.20;99.90
10417;DHT22;62605;49.432;8.680;2023-12-07T09:28:46;3.10;99.90
10417;DHT22;62605;49.432;8.680;2023-12-07T09:31:13;3.10;99.90
10417;DHT22;62605;49.432;8.680;2023-12-07T09:33:42;3.20;99.90
10417;DHT22;62605;49.432;8.680;2023-12-07T09:36:09;3.30;99.90
10417;DHT22;62605;49.432;8.680;2023-12-07T09:38:40;3.20;99.90
10417;DHT22;62605;49.432;8.680;2023-12-07T09:41:24;3.10;99.90
10417;DHT22;62605;49.432;8.680;2023-12-07T09:44:01;3.00;99.90
10417;DHT22;62605;49.432;8.680;2023-12-07T09:46:30;3.20;99.90
10417;DHT22;62605;49.432;8.680;2023-12-07T09:48:58;3.20;99.90
10417;DHT22;62605;49.432;8.680;2023-12-07T09:51:26;3.20;99.90
10417;DHT22;62605;49.432;8.680;2023-12-07T09:53:54;3.10;99.90
10417;DHT22;62605;49.432;8.680;2023-12-07T09:56:23;3.20;99.90
10417;DHT22;62605;49.432;8.680;2023-12-07T09:58:51;3.30;99.90
10417;DHT22;62605;49.432;8.680;2023-12-07T10:01:18;3.40;99.90
10417;DHT22;62605;49.432;8.680;2023-12-07T10:03:45;3.30;99.90
10417;DHT22;62605;49.432;8.680;2023-12-07T10:06:13;3.30;99.90
10417;DHT22;62605;49.432;8.680;2023-12-07T10:08:41;3.30;99.90
10417;DHT22;62605;49.432;8.680;2023-12-07T10:11:10;3.30;99.90
10417;DHT22;62605;49.432;8.680;2023-12-07T10:13:41;3.40;99.90
10417;DHT22;62605;49.432;8.680;2023-12-07T10:16:15;3.40;99.90
10417;DHT22;62605;49.432;8.680;2023-12-07T10:19:17;3.40;99.90
10417;DHT22;62605;49.432;8.680;2023-12-07T10:21:36;3.50;99.90
10417;DHT22;62605;49.432;8.680;2023-12-07T10:24:11;3.50;99.90
10417;DHT22;62605;49.432;8.680;2023-12-07T10:26:39;3.50;99.90
10417;DHT22;62605;49.432;8.680;2023-12-07T10:29:08;3.60;99.90
10417;DHT22;62605;49.432;8.680;2023-12-07T10:31:36;3.60;99.90
10417;DHT22;62605;49.432;8.680;2023-12-07T10:34:05;3.60;99.90
10417;DHT22;62605;49.432;8.680;2023-12-07T10:36:35;3.70;99.90
10417;DHT22;62605;49.432;8.680;2023-12-07T10:39:02;3.70;99.90
10417;DHT22;62605;49.432;8.680;2023-12-07T10:41:36;3.80;99.90
10417;DHT22;62605;49.432;8.680;2023-12-07T10:44:13;3.90;99.90
10417;DHT22;62605;49.432;8.680;2023-12-07T10:46:42;3.90;99.90
10417;DHT22;62605;49.432;8.680;2023-12-07T10:49:15;4.10;99.90
10417;DHT22;62605;49.432;8.680;2023-12-07T10:51:51;4.20;99.90
10417;DHT22;62605;49.432;8.680;2023-12-07T10:54:38;4.30;99.90
10417;DHT22;62605;49.432;8.680;2023-12-07T10:57:11;4.40;99.90
10417;DHT22;62605;49.432;8.680;2023-12-07T10:59:43;4.50;99.90
10417;DHT22;62605;49.432;8.680;2023-12-07T11:02:13;4.60;99.90
10417;DHT22;62605;49.432;8.680;2023-12-07T11:04:41;4.60;99.90
10417;DHT22;62605;49.432;8.680;2023-12-07T11:07:13;4.50;99.90
10417;DHT22;62605;49.432;8.680;2023-12-07T11:09:56;4.50;99.90
10417;DHT22;62605;49.432;8.680;2023-12-07T11:12:37;4.50;99.90
10417;DHT22;62605;49.432;8.680;2023-12-07T11:15:08;4.60;99.90
10417;DHT22;62605;49.432;8.680;2023-12-07T11:17:49;4.50;99.90
10417;DHT22;62605;49.432;8.680;2023-12-07T11:20:19;4.40;99.90
10417;DHT22;62605;49.432;8.680;2023-12-07T11:22:47;4.50;99.90
10417;DHT22;62605;49.432;8.680;2023-12-07T11:25:15;4.50;99.90
10417;DHT22;62605;49.432;8.680;2023-12-07T11:27:49;4.50;99.90
10417;DHT22;62605;49.432;8.680;2023-12-07T11:30:32;4.50;99.90
10417;DHT22;62605;49.432;8.680;2023-12-07T11:33:01;4.40;99.90
10417;DHT22;62605;49.432;8.680;2023-12-07T11:35:29;4.50;99.90
10417;DHT22;62605;49.432;8.680;2023-12-07T11:38:13;4.70;99.90
10417;DHT22;62605;49.432;8.680;2023-12-07T11:44:01;4.70;99.90
10417;DHT22;62605;49.432;8.680;2023-12-07T11:46:31;4.60;99.90
10417;DHT22;62605;49.432;8.680;2023-12-07T11:49:33;4.70;99.90
10417;DHT22;62605;49.432;8.680;2023-12-07T11:52:00;4.50;99.90
10417;DHT22;62605;49.432;8.680;2023-12-07T11:54:28;4.60;99.90
10417;DHT22;62605;49.432;8.680;2023-12-07T11:56:57;4.60;99.90
10417;DHT22;62605;49.432;8.680;2023-12-07T11:59:24;4.70;99.90
10417;DHT22;62605;49.432;8.680;2023-12-07T12:01:53;4.70;99.90
10417;DHT22;62605;49.432;8.680;2023-12-07T12:04:21;4.80;99.90
10417;DHT22;62605;49.432;8.680;2023-12-07T12:06:49;4.80;99.90
10417;DHT22;62605;49.432;8.680;2023-12-07T12:09:16;4.80;99.90
10417;DHT22;62605;49.432;8.680;2023-12-07T12:11:45;4.70;99.90
10417;DHT22;62605;49.432;8.680;2023-12-07T12:14:14;4.60;99.90
10417;DHT22;62605;49.432;8.680;2023-12-07T12:16:42;4.50;99.90
10417;DHT22;62605;49.432;8.680;2023-12-07T12:19:11;4.60;99.90
10417;DHT22;62605;49.432;8.680;2023-12-07T12:21:40;4.70;99.90
10417;DHT22;62605;49.432;8.680;2023-12-07T12:24:09;4.70;99.90
10417;DHT22;62605;49.432;8.680;2023-12-07T12:26:40;4.60;99.90
10417;DHT22;62605;49.432;8.680;2023-12-07T12:29:08;4.60;99.90
10417;DHT22;62605;49.432;8.680;2023-12-07T12:31:37;4.60;99.90
10417;DHT22;62605;49.432;8.680;2023-12-07T12:34:06;4.60;99.90
10417;DHT22;62605;49.432;8.680;2023-12-07T12:36:35;4.50;99.90
10417;DHT22;62605;49.432;8.680;2023-12-07T12:39:02;4.50;99.90
10417;DHT22;62605;49.432;8.680;2023-12-07T12:41:38;4.50;99.90
10417;DHT22;62605;49.432;8.680;2023-12-07T12:44:26;4.50;99.90
10417;DHT22;62605;49.432;8.680;2023-12-07T12:47:26;4.50;99.90
10417;DHT22;62605;49.432;8.680;2023-12-07T12:49:58;4.60;99.90
10417;DHT22;62605;49.432;8.680;2023-12-07T12:52:28;4.60;99.90
10417;DHT22;62605;49.432;8.680;2023-12-07T12:55:34;4.60;99.90
10417;DHT22;62605;49.432;8.680;2023-12-07T12:57:50;4.60;99.90
10417;DHT22;62605;49.432;8.680;2023-12-07T13:00:18;4.60;99.90
10417;DHT22;62605;49.432;8.680;2023-12-07T13:02:46;4.70;99.90
10417;DHT22;62605;49.432;8.680;2023-12-07T13:05:13;4.90;99.90
10417;DHT22;62605;49.432;8.680;2023-12-07T13:07:43;4.80;99.90
10417;DHT22;62605;49.432;8.680;2023-12-07T13:10:13;5.00;99.90
10417;DHT22;62605;49.432;8.680;2023-12-07T13:12:40;4.90;99.90
10417;DHT22;62605;49.432;8.680;2023-12-07T13:15:09;4.90;99.90
10417;DHT22;62605;49.432;8.680;2023-12-07T13:17:38;4.90;99.90
10417;DHT22;62605;49.432;8.680;2023-12-07T13:20:07;4.80;99.90
10417;DHT22;62605;49.432;8.680;2023-12-07T13:22:36;4.70;99.90
10417;DHT22;62605;49.432;8.680;2023-12-07T13:25:06;4.70;99.90
10417;DHT22;62605;49.432;8.680;2023-12-07T13:27:33;4.70;99.90
10417;DHT22;62605;49.432;8.680;2023-12-07T13:30:01;4.70;99.90
10417;DHT22;62605;49.432;8.680;2023-12-07T13:32:31;4.70;99.90
10417;DHT22;62605;49.432;8.680;2023-12-07T13:34:59;4.70;99.90
10417;DHT22;62605;49.432;8.680;2023-12-07T13:37:26;4.70;99.90
10417;DHT22;62605;49.432;8.680;2023-12-07T13:39:54;4.80;99.90
10417;DHT22;62605;49.432;8.680;2023-12-07T13:42:26;4.80;99.90
10417;DHT22;62605;49.432;8.680;2023-12-07T13:44:54;4.80;99.90
10417;DHT22;62605;49.432;8.680;2023-12-07T13:47:23;4.80;99.90
10417;DHT22;62605;49.432;8.680;2023-12-07T13:49:54;4.80;99.90
10417;DHT22;62605;49.432;8.680;2023-12-07T13:52:22;4.80;99.90
10417;DHT22;62605;49.432;8.680;2023-12-07T13:54:50;4.90;99.90
10417;DHT22;62605;49.432;8.680;2023-12-07T13:57:18;4.90;99.90
10417;DHT22;62605;49.432;8.680;2023-12-07T14:00:00;4.90;99.90
10417;DHT22;62605;49.432;8.680;2023-12-07T14:02:27;4.90;99.90
10417;DHT22;62605;49.432;8.680;2023-12-07T14:05:33;4.80;99.90
10417;DHT22;62605;49.432;8.680;2023-12-07T14:07:54;4.90;99.90
10417;DHT22;62605;49.432;8.680;2023-12-07T14:10:46;4.80;99.90
10417;DHT22;62605;49.432;8.680;2023-12-07T14:13:19;4.80;99.90
10417;DHT22;62605;49.432;8.680;2023-12-07T14:16:23;4.80;99.90
10417;DHT22;62605;49.432;8.680;2023-12-07T14:18:41;4.80;99.90
10417;DHT22;62605;49.432;8.680;2023-12-07T14:21:26;4.70;99.90
10417;DHT22;62605;49.432;8.680;2023-12-07T14:24:00;4.60;99.90
10417;DHT22;62605;49.432;8.680;2023-12-07T14:26:27;4.60;99.90
10417;DHT22;62605;49.432;8.680;2023-12-07T14:29:37;4.60;99.90
10417;DHT22;62605;49.432;8.680;2023-12-07T14:33:02;4.50;99.90
10417;DHT22;62605;49.432;8.680;2023-12-07T14:34:44;4.50;99.90
10417;DHT22;62605;49.432;8.680;2023-12-07T14:37:56;4.40;99.90
10417;DHT22;62605;49.432;8.680;2023-12-07T14:40:32;4.40;99.90
10417;DHT22;62605;49.432;8.680;2023-12-07T14:44:04;4.30;99.90
10417;DHT22;62605;49.432;8.680;2023-12-07T14:47:02;4.30;99.90
10417;DHT22;62605;49.432;8.680;2023-12-07T14:50:39;4.30;99.90
10417;DHT22;62605;49.432;8.680;2023-12-07T14:52:25;4.40;99.90
10417;DHT22;62605;49.432;8.680;2023-12-07T14:54:53;4.30;99.90
10417;DHT22;62605;49.432;8.680;2023-12-07T14:57:20;4.20;99.90
10417;DHT22;62605;49.432;8.680;2023-12-07T14:59:47;4.20;99.90
10417;DHT22;62605;49.432;8.680;2023-12-07T15:02:14;4.20;99.90
10417;DHT22;62605;49.432;8.680;2023-12-07T15:04:43;4.20;99.90
10417;DHT22;62605;49.432;8.680;2023-12-07T15:07:10;4.00;99.90
10417;DHT22;62605;49.432;8.680;2023-12-07T15:09:37;4.00;99.90
10417;DHT22;62605;49.432;8.680;2023-12-07T15:12:13;3.80;99.90
10417;DHT22;62605;49.432;8.680;2023-12-07T15:15:02;4.00;99.90
10417;DHT22;62605;49.432;8.680;2023-12-07T15:18:01;4.00;99.90
10417;DHT22;62605;49.432;8.680;2023-12-07T15:20:36;3.90;99.90
10417;DHT22;62605;49.432;8.680;2023-12-07T15:23:06;3.80;99.90
10417;DHT22;62605;49.432;8.680;2023-12-07T15:25:34;3.80;99.90
10417;DHT22;62605;49.432;8.680;2023-12-07T15:28:06;3.70;99.90
10417;DHT22;62605;49.432;8.680;2023-12-07T15:31:01;3.60;99.90
10417;DHT22;62605;49.432;8.680;2023-12-07T15:33:50;3.80;99.90
10417;DHT22;62605;49.432;8.680;2023-12-07T15:36:21;3.90;99.90
10417;DHT22;62605;49.432;8.680;2023-12-07T15:38:50;3.90;99.90
10417;DHT22;62605;49.432;8.680;2023-12-07T15:42:42;3.80;99.90
10417;DHT22;62605;49.432;8.680;2023-12-07T15:44:17;3.80;99.90
10417;DHT22;62605;49.432;8.680;2023-12-07T15:46:44;3.90;99.90
10417;DHT22;62605;49.432;8.680;2023-12-07T15:49:11;3.90;99.90
10417;DHT22;62605;49.432;8.680;2023-12-07T15:51:40;3.80;99.90
10417;DHT22;62605;49.432;8.680;2023-12-07T15:54:07;3.90;99.90
10417;DHT22;62605;49.432;8.680;2023-12-07T15:56:39;3.80;99.90
10417;DHT22;62605;49.432;8.680;2023-12-07T15:59:07;3.90;99.90
10417;DHT22;62605;49.432;8.680;2023-12-07T16:01:34;3.80;99.90
10417;DHT22;62605;49.432;8.680;2023-12-07T16:04:02;3.70;99.90
10417;DHT22;62605;49.432;8.680;2023-12-07T16:06:29;3.60;99.90
10417;DHT22;62605;49.432;8.680;2023-12-07T16:08:58;3.80;99.90
10417;DHT22;62605;49.432;8.680;2023-12-07T16:11:25;3.80;99.90
10417;DHT22;62605;49.432;8.680;2023-12-07T16:13:52;3.90;99.90
10417;DHT22;62605;49.432;8.680;2023-12-07T16:16:22;3.90;99.90
10417;DHT22;62605;49.432;8.680;2023-12-07T16:18:50;3.90;99.90
10417;DHT22;62605;49.432;8.680;2023-12-07T16:21:17;4.00;99.90
10417;DHT22;62605;49.432;8.680;2023-12-07T16:23:47;4.00;99.90
10417;DHT22;62605;49.432;8.680;2023-12-07T16:26:15;4.00;99.90
10417;DHT22;62605;49.432;8.680;2023-12-07T16:28:42;4.00;99.90
10417;DHT22;62605;49.432;8.680;2023-12-07T16:31:11;4.10;99.90
10417;DHT22;62605;49.432;8.680;2023-12-07T16:33:41;4.30;99.90
10417;DHT22;62605;49.432;8.680;2023-12-07T16:36:15;4.30;99.90
10417;DHT22;62605;49.432;8.680;2023-12-07T16:38:47;4.20;99.90
10417;DHT22;62605;49.432;8.680;2023-12-07T16:41:19;4.30;99.90
10417;DHT22;62605;49.432;8.680;2023-12-07T16:43:46;4.20;99.90
10417;DHT22;62605;49.432;8.680;2023-12-07T16:46:14;4.30;99.90
10417;DHT22;62605;49.432;8.680;2023-12-07T16:48:41;4.30;99.90
10417;DHT22;62605;49.432;8.680;2023-12-07T16:51:11;4.30;99.90
10417;DHT22;62605;49.432;8.680;2023-12-07T16:53:39;4.30;99.90
10417;DHT22;62605;49.432;8.680;2023-12-07T16:56:07;4.30;99.90
10417;DHT22;62605;49.432;8.680;2023-12-07T16:58:37;4.20;99.90
10417;DHT22;62605;49.432;8.680;2023-12-07T17:01:06;4.30;99.90
10417;DHT22;62605;49.432;8.680;2023-12-07T17:03:34;4.20;99.90
10417;DHT22;62605;49.432;8.680;2023-12-07T17:06:02;4.30;99.90
10417;DHT22;62605;49.432;8.680;2023-12-07T17:08:31;4.30;99.90
10417;DHT22;62605;49.432;8.680;2023-12-07T17:10:59;4.30;99.90
10417;DHT22;62605;49.432;8.680;2023-12-07T17:13:27;4.30;99.90
10417;DHT22;62605;49.432;8.680;2023-12-07T17:15:56;4.40;99.90
10417;DHT22;62605;49.432;8.680;2023-12-07T17:18:23;4.40;99.90
10417;DHT22;62605;49.432;8.680;2023-12-07T17:20:51;4.30;99.90
10417;DHT22;62605;49.432;8.680;2023-12-07T17:23:18;4.30;99.90
10417;DHT22;62605;49.432;8.680;2023-12-07T17:25:46;4.30;99.90
10417;DHT22;62605;49.432;8.680;2023-12-07T17:28:13;4.30;99.90
10417;DHT22;62605;49.432;8.680;2023-12-07T17:30:41;4.30;99.90
10417;DHT22;62605;49.432;8.680;2023-12-07T17:33:10;4.30;99.90
10417;DHT22;62605;49.432;8.680;2023-12-07T17:35:38;4.30;99.90
10417;DHT22;62605;49.432;8.680;2023-12-07T17:38:05;4.30;99.90
10417;DHT22;62605;49.432;8.680;2023-12-07T17:40:33;4.20;99.90
10417;DHT22;62605;49.432;8.680;2023-12-07T17:43:00;4.20;99.90
10417;DHT22;62605;49.432;8.680;2023-12-07T17:45:28;4.10;99.90
10417;DHT22;62605;49.432;8.680;2023-12-07T17:47:55;4.20;99.90
10417;DHT22;62605;49.432;8.680;2023-12-07T17:50:28;4.10;99.90
10417;DHT22;62605;49.432;8.680;2023-12-07T17:52:56;4.20;99.90
10417;DHT22;62605;49.432;8.680;2023-12-07T17:55:23;4.20;99.90
10417;DHT22;62605;49.432;8.680;2023-12-07T17:57:52;4.10;99.90
10417;DHT22;62605;49.432;8.680;2023-12-07T18:00:20;4.10;99.90
10417;DHT22;62605;49.432;8.680;2023-12-07T18:02:47;4.10;99.90
10417;DHT22;62605;49.432;8.680;2023-12-07T18:05:15;4.10;99.90
10417;DHT22;62605;49.432;8.680;2023-12-07T18:07:45;4.10;99.90
10417;DHT22;62605;49.432;8.680;2023-12-07T18:10:13;4.20;95.10
10417;DHT22;62605;49.432;8.680;2023-12-07T18:12:40;4.10;95.90
10417;DHT22;62605;49.432;8.680;2023-12-07T18:15:09;4.10;90.30
10417;DHT22;62605;49.432;8.680;2023-12-07T18:17:36;4.10;85.90
10417;DHT22;62605;49.432;8.680;2023-12-07T18:20:15;4.10;78.30
10417;DHT22;62605;49.432;8.680;2023-12-07T18:22:46;4.10;72.80
10417;DHT22;62605;49.432;8.680;2023-12-07T18:25:18;4.10;70.20
10417;DHT22;62605;49.432;8.680;2023-12-07T18:27:48;4.20;68.30
10417;DHT22;62605;49.432;8.680;2023-12-07T18:30:15;4.10;65.60
10417;DHT22;62605;49.432;8.680;2023-12-07T18:32:43;4.10;58.50
10417;DHT22;62605;49.432;8.680;2023-12-07T18:35:10;4.10;54.70
10417;DHT22;62605;49.432;8.680;2023-12-07T18:37:38;4.10;52.10
10417;DHT22;62605;49.432;8.680;2023-12-07T18:40:08;4.10;49.70
10417;DHT22;62605;49.432;8.680;2023-12-07T18:42:55;4.20;50.40
10417;DHT22;62605;49.432;8.680;2023-12-07T18:45:31;4.10;43.60
10417;DHT22;62605;49.432;8.680;2023-12-07T18:47:59;4.10;39.80
10417;DHT22;62605;49.432;8.680;2023-12-07T18:50:27;4.00;35.40
10417;DHT22;62605;49.432;8.680;2023-12-07T18:52:54;4.10;32.70
10417;DHT22;62605;49.432;8.680;2023-12-07T18:55:26;4.10;30.20
10417;DHT22;62605;49.432;8.680;2023-12-07T18:57:53;3.90;26.80
10417;DHT22;62605;49.432;8.680;2023-12-07T19:00:21;3.90;23.10
10417;DHT22;62605;49.432;8.680;2023-12-07T19:02:48;4.00;20.80
10417;DHT22;62605;49.432;8.680;2023-12-07T19:05:15;4.00;20.70
10417;DHT22;62605;49.432;8.680;2023-12-07T19:07:43;4.00;13.10
10417;DHT22;62605;49.432;8.680;2023-12-07T19:10:10;3.90;10.50
10417;DHT22;62605;49.432;8.680;2023-12-07T19:12:38;3.80;9.20
10417;DHT22;62605;49.432;8.680;2023-12-07T19:15:06;3.80;11.80
10417;DHT22;62605;49.432;8.680;2023-12-07T19:17:34;3.80;6.10
10417;DHT22;62605;49.432;8.680;2023-12-07T19:20:02;3.80;6.80
10417;DHT22;62605;49.432;8.680;2023-12-07T19:22:29;3.70;3.50
10417;DHT22;62605;49.432;8.680;2023-12-07T19:24:57;3.60;5.20
10417;DHT22;62605;49.432;8.680;2023-12-07T19:27:25;3.50;1.10
10417;DHT22;62605;49.432;8.680;2023-12-07T19:29:54;3.60;1.00
10417;DHT22;62605;49.432;8.680;2023-12-07T19:32:21;3.70;1.00
10417;DHT22;62605;49.432;8.680;2023-12-07T19:34:49;3.70;1.00
10417;DHT22;62605;49.432;8.680;2023-12-07T19:37:16;3.60;1.00
10417;DHT22;62605;49.432;8.680;2023-12-07T19:39:44;3.60;1.00
10417;DHT22;62605;49.432;8.680;2023-12-07T19:42:11;3.60;1.00
10417;DHT22;62605;49.432;8.680;2023-12-07T19:44:40;3.60;1.00
10417;DHT22;62605;49.432;8.680;2023-12-07T19:47:10;3.50;1.00
10417;DHT22;62605;49.432;8.680;2023-12-07T19:49:39;3.50;1.00